createdAt,value
2023-02-09T00:01:34.822Z,21.13
2023-02-09T00:04:02.473Z,21.10
2023-02-09T00:06:30.146Z,19.27
2023-02-09T00:08:57.785Z,21.63
2023-02-09T00:11:46.843Z,19.23
2023-02-09T00:14:14.795Z,21.02
2023-02-09T00:16:41.479Z,19.58
2023-02-09T00:19:07.963Z,20.25
2023-02-09T00:21:34.378Z,21.63
2023-02-09T00:24:00.798Z,19.17
2023-02-09T00:26:27.435Z,25.35
2023-02-09T00:28:53.844Z,22.02
2023-02-09T00:31:20.399Z,20.38
2023-02-09T00:33:47.099Z,17.98
2023-02-09T00:36:14.647Z,15.27
2023-02-09T00:38:42.151Z,17.73
2023-02-09T00:41:09.639Z,20.42
2023-02-09T00:43:37.617Z,25.80
2023-02-09T00:46:04.441Z,20.10
2023-02-09T00:48:30.998Z,19.10
2023-02-09T00:50:57.589Z,17.50
2023-02-09T00:53:24.618Z,21.58
2023-02-09T00:55:51.138Z,18.42
2023-02-09T00:58:17.861Z,21.30
2023-02-09T01:00:44.746Z,19.77
2023-02-09T01:03:11.885Z,24.92
2023-02-09T01:05:40.089Z,18.27
2023-02-09T01:08:06.531Z,22.38
2023-02-09T01:10:33.330Z,19.15
2023-02-09T01:12:59.865Z,20.38
2023-02-09T01:15:28.434Z,20.58
2023-02-09T01:17:54.864Z,20.13
2023-02-09T01:20:21.218Z,22.60
2023-02-09T01:22:47.597Z,23.17
2023-02-09T01:25:13.954Z,20.63
2023-02-09T01:27:42.088Z,19.15
2023-02-09T01:30:09.133Z,19.85
2023-02-09T01:32:37.017Z,22.88
2023-02-09T01:35:04.225Z,19.77
2023-02-09T01:37:32.907Z,20.98
2023-02-09T01:39:59.248Z,26.10
2023-02-09T01:42:25.739Z,23.88
2023-02-09T01:45:08.546Z,23.65
2023-02-09T01:47:44.303Z,23.40
2023-02-09T01:50:11.604Z,21.85
2023-02-09T01:52:39.419Z,22.98
2023-02-09T01:55:11.618Z,21.20
2023-02-09T01:57:42.184Z,22.05
2023-02-09T02:00:14.959Z,23.95
2023-02-09T02:02:48.002Z,24.50
2023-02-09T02:05:15.335Z,21.13
2023-02-09T02:08:14.545Z,22.10
2023-02-09T02:10:40.931Z,20.08
2023-02-09T02:13:07.294Z,20.38
2023-02-09T02:15:52.488Z,24.02
2023-02-09T02:18:41.273Z,20.33
2023-02-09T02:21:31.305Z,22.60
2023-02-09T02:24:08.702Z,18.35
2023-02-09T02:26:43.011Z,22.08
2023-02-09T02:29:40.621Z,22.98
2023-02-09T02:32:34.852Z,21.80
2023-02-09T02:35:01.150Z,21.35
2023-02-09T02:38:03.024Z,26.50
2023-02-09T02:40:51.934Z,25.48
2023-02-09T02:43:47.681Z,21.77
2023-02-09T02:46:17.635Z,26.17
2023-02-09T02:48:56.675Z,19.20
2023-02-09T02:51:44.631Z,20.27
2023-02-09T02:54:17.876Z,21.70
2023-02-09T02:56:49.602Z,23.10
2023-02-09T02:59:20.677Z,23.63
2023-02-09T03:01:55.426Z,26.08
2023-02-09T03:04:23.497Z,20.67
2023-02-09T03:06:49.846Z,20.25
2023-02-09T03:09:17.791Z,25.63
2023-02-09T03:11:47.882Z,20.63
2023-02-09T03:14:30.329Z,23.70
2023-02-09T03:17:30.845Z,22.20
2023-02-09T03:20:10.729Z,22.95
2023-02-09T03:22:41.663Z,20.35
2023-02-09T03:25:23.605Z,23.20
2023-02-09T03:28:02.990Z,24.90
2023-02-09T03:30:32.656Z,25.33
2023-02-09T03:32:59.520Z,21.63
2023-02-09T03:35:33.619Z,23.60
2023-02-09T03:38:01.255Z,25.08
2023-02-09T03:40:27.812Z,25.45
2023-02-09T03:42:54.222Z,22.58
2023-02-09T03:45:20.574Z,28.85
2023-02-09T03:47:47.143Z,28.35
2023-02-09T03:50:13.500Z,23.15
2023-02-09T03:52:39.940Z,24.67
2023-02-09T03:55:06.650Z,26.60
2023-02-09T03:57:33.052Z,24.73
2023-02-09T04:00:01.082Z,26.02
2023-02-09T04:02:27.582Z,27.92
2023-02-09T04:04:53.990Z,23.85
2023-02-09T04:07:20.634Z,22.63
2023-02-09T04:09:47.187Z,23.50
2023-02-09T04:12:13.588Z,24.05
2023-02-09T04:14:39.934Z,27.10
2023-02-09T04:17:06.430Z,37.80
2023-02-09T04:19:32.781Z,27.50
2023-02-09T04:21:59.991Z,24.55
2023-02-09T04:24:27.500Z,26.00
2023-02-09T04:26:53.963Z,25.27
2023-02-09T04:29:20.331Z,24.98
2023-02-09T04:31:46.812Z,21.48
2023-02-09T04:34:13.281Z,27.92
2023-02-09T04:36:39.666Z,24.10
2023-02-09T04:39:06.017Z,32.90
2023-02-09T04:41:32.474Z,26.98
2023-02-09T04:43:58.912Z,24.40
2023-02-09T04:46:25.368Z,22.88
2023-02-09T04:48:51.744Z,27.60
2023-02-09T04:51:18.425Z,24.95
2023-02-09T04:53:44.818Z,20.55
2023-02-09T04:56:15.274Z,23.83
2023-02-09T04:59:00.696Z,22.45
2023-02-09T05:01:27.244Z,21.40
2023-02-09T05:03:53.704Z,25.58
2023-02-09T05:06:20.467Z,26.70
2023-02-09T05:08:47.142Z,28.60
2023-02-09T05:11:13.530Z,22.83
2023-02-09T05:13:39.983Z,23.67
2023-02-09T05:16:07.754Z,27.00
2023-02-09T05:18:34.283Z,24.25
2023-02-09T05:21:00.861Z,23.20
2023-02-09T05:23:27.228Z,26.92
2023-02-09T05:25:54.886Z,25.70
2023-02-09T05:28:21.292Z,29.23
2023-02-09T05:30:53.366Z,23.48
2023-02-09T05:33:24.997Z,25.23
2023-02-09T05:35:53.429Z,23.60
2023-02-09T05:38:19.873Z,24.60
2023-02-09T05:40:46.849Z,25.25
2023-02-09T05:43:13.511Z,24.23
2023-02-09T05:45:39.988Z,28.75
2023-02-09T05:48:07.396Z,26.42
2023-02-09T05:50:35.501Z,24.42
2023-02-09T05:53:06.928Z,26.20
2023-02-09T05:55:33.294Z,27.88
2023-02-09T05:57:59.684Z,27.15
2023-02-09T06:00:27.075Z,27.30
2023-02-09T06:02:53.469Z,26.60
2023-02-09T06:05:21.808Z,27.42
2023-02-09T06:07:48.705Z,23.85
2023-02-09T06:10:15.998Z,25.55
2023-02-09T06:12:42.343Z,26.23
2023-02-09T06:15:10.278Z,27.38
2023-02-09T06:17:36.798Z,25.95
2023-02-09T06:20:03.694Z,29.48
2023-02-09T06:22:31.620Z,33.33
2023-02-09T06:24:58.048Z,27.67
2023-02-09T06:27:24.454Z,28.23
2023-02-09T06:29:50.831Z,28.17
2023-02-09T06:32:17.232Z,23.52
2023-02-09T06:34:43.641Z,26.98
2023-02-09T06:37:10.093Z,24.38
2023-02-09T06:39:36.462Z,27.05
2023-02-09T06:42:02.927Z,24.90
2023-02-09T06:44:29.291Z,28.38
2023-02-09T06:46:55.916Z,26.42
2023-02-09T06:49:23.869Z,25.42
2023-02-09T06:51:50.670Z,28.77
2023-02-09T06:54:17.194Z,29.88
2023-02-09T06:56:43.600Z,28.08
2023-02-09T06:59:10.197Z,25.77
2023-02-09T07:01:37.244Z,30.63
2023-02-09T07:04:03.665Z,29.00
2023-02-09T07:06:30.035Z,41.05
2023-02-09T07:08:56.706Z,49.45
2023-02-09T07:11:23.128Z,37.60
2023-02-09T07:13:49.525Z,38.60
2023-02-09T07:16:16.016Z,29.42
2023-02-09T07:18:42.711Z,32.13
2023-02-09T07:21:15.450Z,26.50
2023-02-09T07:23:41.880Z,29.13
2023-02-09T07:26:13.296Z,27.77
2023-02-09T07:28:39.672Z,25.08
2023-02-09T07:31:09.449Z,25.40
2023-02-09T07:33:36.755Z,27.60
2023-02-09T07:36:08.602Z,26.38
2023-02-09T07:38:35.798Z,27.10
2023-02-09T07:41:04.244Z,29.25
2023-02-09T07:43:30.990Z,26.38
2023-02-09T07:46:06.001Z,26.80
2023-02-09T07:48:33.861Z,23.52
2023-02-09T07:51:00.561Z,23.15
2023-02-09T07:53:27.951Z,28.52
2023-02-09T07:55:54.423Z,25.83
2023-02-09T07:58:21.839Z,26.30
2023-02-09T08:00:52.210Z,24.65
2023-02-09T08:03:21.034Z,28.83
2023-02-09T08:05:56.436Z,27.95
2023-02-09T08:08:23.108Z,26.23
2023-02-09T08:10:50.062Z,28.58
2023-02-09T08:13:16.633Z,29.13
2023-02-09T08:15:48.918Z,28.25
2023-02-09T08:18:22.075Z,24.98
2023-02-09T08:20:50.065Z,24.17
2023-02-09T08:23:22.165Z,23.50
2023-02-09T08:25:51.367Z,28.23
2023-02-09T08:28:25.275Z,32.65
2023-02-09T08:30:58.666Z,28.63
2023-02-09T08:33:25.366Z,25.40
2023-02-09T08:35:52.374Z,29.25
2023-02-09T08:38:19.611Z,26.98
2023-02-09T08:40:46.528Z,37.15
2023-02-09T08:43:13.814Z,31.10
2023-02-09T08:45:41.904Z,32.22
2023-02-09T08:48:10.127Z,27.02
2023-02-09T08:50:37.766Z,29.20
2023-02-09T08:53:05.922Z,30.25
2023-02-09T08:55:34.041Z,30.50
2023-02-09T08:58:00.441Z,28.38
2023-02-09T09:00:27.556Z,29.20
2023-02-09T09:02:53.948Z,29.02
2023-02-09T09:05:20.332Z,31.38
2023-02-09T09:07:47.997Z,26.98
2023-02-09T09:10:14.458Z,28.98
2023-02-09T09:12:40.905Z,31.27
2023-02-09T09:15:07.709Z,28.88
2023-02-09T09:17:34.156Z,30.48
2023-02-09T09:20:00.566Z,29.38
2023-02-09T09:22:26.951Z,27.27
2023-02-09T09:24:55.210Z,24.77
2023-02-09T09:27:21.988Z,26.67
2023-02-09T09:29:48.459Z,28.67
2023-02-09T09:32:14.984Z,28.13
2023-02-09T09:34:42.909Z,34.38
2023-02-09T09:37:09.542Z,30.90
2023-02-09T09:39:35.993Z,31.27
2023-02-09T09:42:02.966Z,33.40
2023-02-09T09:44:44.689Z,24.70
2023-02-09T09:47:17.921Z,29.95
2023-02-09T09:49:44.463Z,29.30
2023-02-09T09:52:19.574Z,27.20
2023-02-09T09:54:46.120Z,33.38
2023-02-09T09:57:24.251Z,29.45
2023-02-09T09:59:52.052Z,28.65
2023-02-09T10:02:36.878Z,27.58
2023-02-09T10:05:15.292Z,28.15
2023-02-09T10:07:45.551Z,31.42
2023-02-09T10:10:18.398Z,26.42
2023-02-09T10:15:28.279Z,29.65
2023-02-09T10:17:56.813Z,30.98
2023-02-09T10:20:43.245Z,31.35
2023-02-09T10:23:28.334Z,31.88
2023-02-09T10:26:02.298Z,30.95
2023-02-09T10:28:32.363Z,27.83
2023-02-09T10:31:02.878Z,28.48
2023-02-09T10:33:40.551Z,32.88
2023-02-09T10:36:22.133Z,26.92
2023-02-09T10:38:48.504Z,27.25
2023-02-09T10:41:15.974Z,26.35
2023-02-09T10:43:42.890Z,26.58
2023-02-09T10:46:17.766Z,25.95
2023-02-09T10:48:46.178Z,27.08
2023-02-09T10:51:31.231Z,26.63
2023-02-09T10:54:06.071Z,25.55
2023-02-09T10:56:41.483Z,29.48
2023-02-09T10:59:19.958Z,30.98
2023-02-09T11:02:28.376Z,28.35
2023-02-09T11:04:54.767Z,24.00
2023-02-09T11:07:25.177Z,25.77
2023-02-09T11:09:52.465Z,30.40
2023-02-09T11:12:22.481Z,26.95
2023-02-09T11:14:49.062Z,30.25
2023-02-09T11:17:37.322Z,26.25
2023-02-09T11:20:35.475Z,28.60
2023-02-09T11:23:01.847Z,28.00
2023-02-09T11:25:52.750Z,25.90
2023-02-09T11:28:25.249Z,26.13
2023-02-09T11:30:55.987Z,29.20
2023-02-09T11:33:31.456Z,29.05
2023-02-09T11:36:30.349Z,24.67
2023-02-09T11:39:20.436Z,30.02
2023-02-09T11:42:10.877Z,29.23
2023-02-09T11:44:46.374Z,30.95
2023-02-09T11:47:20.825Z,27.25
2023-02-09T11:49:50.905Z,28.60
2023-02-09T11:52:25.023Z,31.17
2023-02-09T11:54:56.467Z,32.70
2023-02-09T11:57:42.292Z,31.08
2023-02-09T12:00:18.890Z,28.95
2023-02-09T12:02:58.589Z,29.27
2023-02-09T12:05:25.899Z,25.92
2023-02-09T12:08:29.414Z,30.23
2023-02-09T12:13:52.865Z,28.88
2023-02-09T12:16:24.484Z,28.95
2023-02-09T12:18:55.041Z,30.05
2023-02-09T12:21:33.996Z,27.58
2023-02-09T12:24:01.698Z,32.58
2023-02-09T12:26:40.198Z,30.90
2023-02-09T12:29:38.234Z,31.88
2023-02-09T12:32:04.611Z,27.02
2023-02-09T12:34:41.280Z,31.25
2023-02-09T12:37:14.032Z,31.08
2023-02-09T12:40:06.492Z,33.33
2023-02-09T12:42:46.922Z,27.23
2023-02-09T12:45:36.637Z,33.03
2023-02-09T12:48:09.039Z,28.08
2023-02-09T12:50:47.495Z,31.20
2023-02-09T12:53:23.328Z,28.50
2023-02-09T12:56:06.695Z,30.67
2023-02-09T12:58:43.545Z,29.95
2023-02-09T13:01:11.138Z,31.20
2023-02-09T13:03:52.184Z,29.27
2023-02-09T13:06:29.689Z,25.63
2023-02-09T13:09:01.750Z,27.52
2023-02-09T13:11:32.567Z,30.80
2023-02-09T13:14:03.989Z,30.00
2023-02-09T13:17:22.810Z,29.40
2023-02-09T13:19:57.300Z,27.58
2023-02-09T13:22:50.135Z,27.80
2023-02-09T13:25:29.904Z,25.00
2023-02-09T13:28:05.880Z,26.77
2023-02-09T13:30:32.472Z,27.83
2023-02-09T13:33:39.530Z,27.33
2023-02-09T13:36:32.779Z,29.33
2023-02-09T13:38:59.228Z,26.30
2023-02-09T13:41:36.723Z,28.63
2023-02-09T13:44:03.625Z,32.17
2023-02-09T13:46:34.898Z,30.58
2023-02-09T13:49:13.033Z,30.30
2023-02-09T13:51:39.457Z,27.92
2023-02-09T13:54:06.294Z,32.88
2023-02-09T13:56:38.664Z,30.67
2023-02-09T13:59:05.123Z,28.23
2023-02-09T14:01:35.499Z,27.10
2023-02-09T14:04:12.130Z,28.17
2023-02-09T14:06:51.841Z,27.10
2023-02-09T14:09:22.499Z,23.55
2023-02-09T14:11:55.243Z,26.40
2023-02-09T14:14:53.846Z,29.60
2023-02-09T14:17:28.989Z,27.52
2023-02-09T14:19:57.807Z,25.77
2023-02-09T14:22:30.381Z,29.17
2023-02-09T14:24:57.046Z,29.67
2023-02-09T14:27:26.726Z,26.85
2023-02-09T14:29:54.396Z,33.10
2023-02-09T14:32:34.191Z,26.80
2023-02-09T14:35:19.590Z,29.63
2023-02-09T14:37:47.738Z,31.58
2023-02-09T14:40:19.920Z,29.33
2023-02-09T14:43:19.733Z,27.33
2023-02-09T14:45:49.159Z,26.92
2023-02-09T14:48:18.703Z,31.58
2023-02-09T14:50:45.621Z,25.77
2023-02-09T14:53:15.557Z,25.38
2023-02-09T14:55:44.273Z,25.90
2023-02-09T14:58:16.723Z,28.50
2023-02-09T15:00:43.826Z,27.48
2023-02-09T15:03:10.397Z,29.55
2023-02-09T15:05:37.335Z,25.63
2023-02-09T15:08:08.688Z,26.13
2023-02-09T15:10:38.201Z,27.85
2023-02-09T15:13:05.198Z,26.52
2023-02-09T15:15:33.051Z,29.17
2023-02-09T15:18:00.236Z,27.40
2023-02-09T15:20:28.318Z,29.55
2023-02-09T15:22:55.743Z,27.55
2023-02-09T15:25:24.029Z,27.73
2023-02-09T15:27:58.446Z,25.77
2023-02-09T15:30:32.418Z,28.95
2023-02-09T15:32:59.008Z,31.92
2023-02-09T15:35:27.880Z,31.65
2023-02-09T15:37:57.167Z,26.52
2023-02-09T15:40:46.702Z,25.02
2023-02-09T15:43:36.246Z,27.13
2023-02-09T15:46:05.761Z,28.13
2023-02-09T15:48:32.624Z,28.58
2023-02-09T15:51:00.183Z,38.17
2023-02-09T15:53:27.261Z,28.50
2023-02-09T15:55:56.926Z,28.55
2023-02-09T15:58:35.428Z,35.50
2023-02-09T16:01:02.673Z,29.92
2023-02-09T16:03:31.501Z,29.52
2023-02-09T16:06:01.401Z,30.38
2023-02-09T16:08:30.508Z,32.50
2023-02-09T16:10:57.099Z,28.50
2023-02-09T16:13:23.627Z,29.27
2023-02-09T16:15:50.328Z,32.70
2023-02-09T16:18:16.791Z,26.77
2023-02-09T16:20:47.118Z,28.48
2023-02-09T16:23:21.358Z,25.38
2023-02-09T16:25:50.537Z,26.45
2023-02-09T16:28:17.757Z,28.05
2023-02-09T16:30:57.952Z,28.40
2023-02-09T16:33:25.767Z,24.17
2023-02-09T16:35:57.272Z,31.20
2023-02-09T16:38:25.433Z,27.73
2023-02-09T16:40:52.825Z,31.63
2023-02-09T16:43:19.884Z,34.13
2023-02-09T16:46:00.887Z,31.25
2023-02-09T16:48:31.520Z,34.75
2023-02-09T16:50:58.327Z,32.83
2023-02-09T16:53:36.574Z,30.45
2023-02-09T16:56:05.599Z,30.10
2023-02-09T16:58:32.506Z,33.33
2023-02-09T17:00:59.227Z,29.20
2023-02-09T17:03:34.410Z,35.45
2023-02-09T17:06:02.269Z,28.05
2023-02-09T17:08:38.976Z,33.65
2023-02-09T17:11:05.371Z,32.55
2023-02-09T17:13:32.084Z,31.88
2023-02-09T17:16:01.773Z,32.25
2023-02-09T17:18:35.166Z,33.78
2023-02-09T17:21:19.558Z,36.75
2023-02-09T17:23:45.967Z,36.50
2023-02-09T17:26:13.604Z,39.58
2023-02-09T17:28:41.389Z,40.92
2023-02-09T17:31:20.856Z,37.92
2023-02-09T17:33:49.962Z,45.58
2023-02-09T17:36:26.813Z,41.70
2023-02-09T17:38:56.321Z,46.08
2023-02-09T17:41:36.881Z,45.72
2023-02-09T17:44:26.407Z,47.13
2023-02-09T17:46:58.474Z,36.35
2023-02-09T17:49:25.002Z,37.00
2023-02-09T17:51:52.782Z,41.55
2023-02-09T17:54:20.460Z,37.83
2023-02-09T17:56:47.450Z,32.33
2023-02-09T17:59:14.700Z,31.00
2023-02-09T18:01:45.003Z,28.75
2023-02-09T18:04:20.563Z,35.25
2023-02-09T18:06:47.375Z,40.75
2023-02-09T18:09:14.491Z,38.38
2023-02-09T18:12:02.156Z,36.13
2023-02-09T18:14:31.379Z,35.88
2023-02-09T18:16:58.085Z,37.97
2023-02-09T18:19:24.689Z,37.67
2023-02-09T18:21:54.149Z,33.13
2023-02-09T18:24:22.504Z,33.85
2023-02-09T18:26:50.829Z,34.55
2023-02-09T18:29:18.183Z,37.90
2023-02-09T18:31:44.582Z,36.30
2023-02-09T18:34:10.988Z,35.67
2023-02-09T18:36:37.362Z,34.20
2023-02-09T18:39:03.867Z,33.22
2023-02-09T18:41:30.264Z,33.08
2023-02-09T18:43:56.761Z,37.05
2023-02-09T18:46:27.051Z,34.30
2023-02-09T18:48:54.551Z,35.67
2023-02-09T18:51:21.479Z,33.38
2023-02-09T18:53:50.071Z,40.42
2023-02-09T18:56:21.653Z,37.83
2023-02-09T18:58:50.342Z,33.17
2023-02-09T19:01:20.048Z,32.78
2023-02-09T19:03:50.098Z,31.15
2023-02-09T19:06:16.739Z,31.77
2023-02-09T19:08:43.104Z,28.77
2023-02-09T19:11:16.828Z,30.50
2023-02-09T19:13:43.278Z,32.35
2023-02-09T19:16:11.711Z,30.20
2023-02-09T19:18:39.381Z,33.08
2023-02-09T19:21:07.141Z,36.88
2023-02-09T19:23:33.694Z,40.33
2023-02-09T19:26:04.951Z,34.60
2023-02-09T19:28:31.582Z,36.47
2023-02-09T19:30:58.073Z,33.47
2023-02-09T19:33:24.749Z,32.40
2023-02-09T19:35:59.221Z,33.40
2023-02-09T19:38:26.737Z,37.88
2023-02-09T19:41:08.597Z,32.33
2023-02-09T19:43:36.017Z,37.22
2023-02-09T19:46:02.546Z,29.98
2023-02-09T19:48:28.948Z,30.33
2023-02-09T19:50:56.994Z,35.78
2023-02-09T19:53:24.604Z,34.55
2023-02-09T19:55:52.233Z,28.90
2023-02-09T19:58:21.565Z,33.35
2023-02-09T20:00:48.952Z,37.55
2023-02-09T20:03:16.612Z,40.22
2023-02-09T20:05:43.835Z,38.53
2023-02-09T20:08:14.041Z,30.98
2023-02-09T20:10:40.488Z,33.30
2023-02-09T20:13:08.348Z,36.63
2023-02-09T20:15:34.927Z,31.88
2023-02-09T20:18:01.442Z,36.38
2023-02-09T20:20:27.908Z,35.17
2023-02-09T20:22:54.288Z,35.20
2023-02-09T20:25:20.694Z,35.33
2023-02-09T20:27:49.865Z,34.33
2023-02-09T20:30:16.374Z,42.28
2023-02-09T20:32:42.847Z,45.35
2023-02-09T20:35:11.389Z,46.17
2023-02-09T20:37:38.160Z,42.25
2023-02-09T20:40:06.030Z,42.65
2023-02-09T20:42:51.321Z,48.67
2023-02-09T20:45:36.406Z,44.95
2023-02-09T20:48:05.266Z,43.80
2023-02-09T20:50:33.378Z,42.55
2023-02-09T20:53:01.397Z,40.05
2023-02-09T20:55:28.620Z,39.92
2023-02-09T20:57:55.136Z,42.90
2023-02-09T21:00:22.042Z,39.83
2023-02-09T21:02:48.506Z,34.50
2023-02-09T21:05:16.484Z,38.47
2023-02-09T21:07:43.178Z,35.75
2023-02-09T21:10:12.654Z,42.38
2023-02-09T21:12:39.062Z,39.15
2023-02-09T21:15:05.716Z,36.15
2023-02-09T21:17:32.105Z,42.78
2023-02-09T21:19:58.554Z,41.75
2023-02-09T21:22:24.995Z,46.83
2023-02-09T21:24:51.336Z,53.15
2023-02-09T21:27:17.772Z,45.58
2023-02-09T21:29:44.147Z,51.75
2023-02-09T21:32:10.936Z,42.83
2023-02-09T21:34:37.513Z,39.95
2023-02-09T21:37:07.639Z,45.83
2023-02-09T21:39:34.025Z,40.08
2023-02-09T21:42:19.022Z,40.58
2023-02-09T21:44:45.450Z,37.00
2023-02-09T21:47:12.046Z,33.85
2023-02-09T21:49:38.518Z,35.83
2023-02-09T21:52:05.009Z,36.00
2023-02-09T21:54:33.631Z,37.20
2023-02-09T21:57:01.148Z,35.38
2023-02-09T21:59:27.815Z,31.30
2023-02-09T22:01:54.330Z,34.58
2023-02-09T22:04:21.093Z,33.22
2023-02-09T22:06:48.292Z,35.42
2023-02-09T22:09:15.059Z,30.15
2023-02-09T22:11:41.503Z,35.75
2023-02-09T22:14:08.041Z,30.30
2023-02-09T22:16:34.439Z,32.22
2023-02-09T22:19:00.886Z,29.25
2023-02-09T22:21:27.249Z,33.25
2023-02-09T22:23:54.000Z,38.28
2023-02-09T22:26:20.414Z,32.55
2023-02-09T22:28:47.031Z,33.30
2023-02-09T22:31:16.731Z,30.23
2023-02-09T22:33:43.703Z,34.10
2023-02-09T22:36:15.672Z,31.65
2023-02-09T22:38:44.483Z,37.25
2023-02-09T22:41:23.809Z,34.75
2023-02-09T22:43:52.511Z,31.77
2023-02-09T22:46:20.956Z,37.33
2023-02-09T22:48:52.043Z,32.30
2023-02-09T22:51:18.876Z,37.55
2023-02-09T22:53:45.577Z,32.75
2023-02-09T22:56:13.166Z,35.72
2023-02-09T22:58:39.919Z,36.40
2023-02-09T23:01:07.555Z,37.15
2023-02-09T23:03:34.311Z,37.67
2023-02-09T23:06:02.437Z,36.78
2023-02-09T23:08:29.552Z,35.55
2023-02-09T23:11:10.316Z,34.92
2023-02-09T23:13:37.077Z,31.30
2023-02-09T23:16:20.252Z,34.13
2023-02-09T23:18:50.064Z,36.55
2023-02-09T23:21:17.744Z,36.25
2023-02-09T23:23:44.738Z,35.25
2023-02-09T23:26:11.790Z,41.42
2023-02-09T23:28:38.237Z,33.53
2023-02-09T23:31:11.866Z,31.40
2023-02-09T23:33:38.663Z,36.15
2023-02-09T23:36:09.175Z,37.55
2023-02-09T23:38:35.993Z,33.05
2023-02-09T23:41:11.280Z,38.00
2023-02-09T23:43:37.848Z,33.88
2023-02-09T23:46:06.535Z,39.95
2023-02-09T23:48:33.867Z,32.80
2023-02-09T23:51:05.774Z,38.35
2023-02-09T23:53:32.882Z,25.97
2023-02-09T23:56:05.655Z,34.35
